Time;durP1;ratioP1;P1;durP2;ratioP2;P2;SDS_P1;SDS_P2;PMS_P1;PMS_P2;Temp;Humidity;BMP_temperature;BMP_pressure;BME280_temperature;BME280_humidity;BME280_pressure;Samples;Min_cycle;Max_cycle;Signal;HPM_P1;HPM_P2
2020/12/27 00:02:09;;;;;;;2.40;2.20;;;4.80;99.90;;;;;;5058742;28;20388;-83
2020/12/27 00:04:36;;;;;;;2.43;2.23;;;4.80;99.90;;;;;;5034270;28;20462;-81
2020/12/27 00:07:20;;;;;;;2.70;2.50;;;4.80;99.90;;;;;;5035939;28;20433;-81
2020/12/27 00:09:45;;;;;;;2.37;2.17;;;4.80;99.90;;;;;;5020578;28;20503;-81
2020/12/27 00:12:38;;;;;;;4.30;2.00;;;4.80;99.90;;;;;;5034533;28;20512;-81
2020/12/27 00:15:04;;;;;;;2.13;1.93;;;4.80;99.90;;;;;;4988769;28;20301;-81
2020/12/27 00:17:29;;;;;;;2.67;2.00;;;4.80;99.90;;;;;;4973262;28;20456;-82
2020/12/27 00:19:55;;;;;;;2.00;1.63;;;4.80;99.90;;;;;;4965357;28;20438;-81
2020/12/27 00:22:53;;;;;;;2.20;2.10;;;4.80;99.90;;;;;;4992158;28;20211;-81
2020/12/27 00:25:19;;;;;;;4.20;2.37;;;4.80;99.90;;;;;;4901737;29;20712;-81
2020/12/27 00:27:46;;;;;;;2.10;1.90;;;4.80;99.90;;;;;;4898065;29;22420;-81
2020/12/27 00:30:42;;;;;;;2.00;1.83;;;4.80;99.90;;;;;;4902277;28;20776;-81
2020/12/27 00:33:35;;;;;;;1.80;1.70;;;4.80;99.90;;;;;;4896064;29;20439;-81
2020/12/27 00:36:02;;;;;;;2.50;1.70;;;4.80;99.90;;;;;;4838660;29;20752;-81
2020/12/27 00:38:27;;;;;;;2.83;2.60;;;4.70;99.90;;;;;;4823705;29;20497;-81
2020/12/27 00:40:53;;;;;;;2.47;1.90;;;4.70;99.90;;;;;;4808397;29;20859;-81
2020/12/27 00:43:46;;;;;;;2.37;2.17;;;4.60;99.90;;;;;;4827800;29;20766;-80
2020/12/27 00:46:12;;;;;;;3.90;2.37;;;4.50;99.90;;;;;;4771509;29;20460;-81
2020/12/27 00:49:07;;;;;;;2.13;1.93;;;4.50;99.90;;;;;;4789625;29;20425;-80
2020/12/27 00:51:32;;;;;;;2.10;1.90;;;4.50;99.90;;;;;;4767188;29;20322;-81
2020/12/27 00:53:58;;;;;;;1.70;1.57;;;4.50;99.90;;;;;;4749920;29;20455;-81
2020/12/27 00:56:24;;;;;;;2.40;1.97;;;4.50;99.90;;;;;;4765711;29;20226;-80
2020/12/27 00:58:49;;;;;;;3.50;2.13;;;4.40;99.90;;;;;;4754999;29;20219;-80
2020/12/27 01:01:15;;;;;;;2.23;2.13;;;4.40;99.90;;;;;;4773459;29;20227;-80
2020/12/27 01:03:42;;;;;;;1.87;1.77;;;4.40;99.90;;;;;;4772357;29;20320;-80
2020/12/27 01:06:10;;;;;;;1.90;1.80;;;4.40;99.90;;;;;;4787699;29;20272;-81
2020/12/27 01:08:36;;;;;;;2.10;1.90;;;4.40;99.90;;;;;;4769176;29;20411;-81
2020/12/27 01:11:08;;;;;;;2.23;2.03;;;4.40;99.90;;;;;;4807790;29;20434;-81
2020/12/27 01:13:37;;;;;;;2.20;1.97;;;4.40;99.90;;;;;;4867024;29;20219;-81
2020/12/27 01:16:04;;;;;;;2.00;1.90;;;4.40;99.90;;;;;;4897131;29;20413;-81
2020/12/27 01:18:29;;;;;;;2.33;2.10;;;4.40;99.90;;;;;;4878142;29;20525;-81
2020/12/27 01:20:55;;;;;;;2.60;2.10;;;4.40;99.90;;;;;;4863364;29;20926;-81
2020/12/27 01:23:21;;;;;;;1.93;1.60;;;4.40;99.90;;;;;;4941501;28;20283;-80
2020/12/27 01:25:47;;;;;;;2.27;2.00;;;4.40;99.90;;;;;;4954976;28;20222;-80
2020/12/27 01:28:14;;;;;;;2.03;1.93;;;4.40;99.90;;;;;;5006625;28;20221;-80
2020/12/27 01:30:40;;;;;;;5.53;2.00;;;4.50;99.90;;;;;;5051354;28;20411;-81
2020/12/27 01:33:07;;;;;;;1.83;1.50;;;4.50;99.90;;;;;;5048596;28;20655;-81
2020/12/27 01:35:32;;;;;;;1.93;1.63;;;4.50;99.90;;;;;;5045531;28;20393;-81
2020/12/27 01:38:21;;;;;;;1.70;1.60;;;4.50;99.90;;;;;;5033748;28;20738;-80
2020/12/27 01:40:49;;;;;;;1.73;1.63;;;4.50;99.90;;;;;;4974302;28;20226;-81
2020/12/27 01:43:16;;;;;;;1.80;1.70;;;4.50;99.90;;;;;;4957083;28;20420;-82
2020/12/27 01:45:44;;;;;;;2.10;1.97;;;4.50;99.90;;;;;;4975271;28;20415;-82
2020/12/27 01:48:42;;;;;;;2.27;2.10;;;4.50;99.90;;;;;;4957917;28;20491;-82
2020/12/27 01:51:37;;;;;;;1.33;1.27;;;4.50;99.90;;;;;;4931493;29;20396;-82
2020/12/27 01:54:32;;;;;;;2.00;1.30;;;4.60;99.90;;;;;;4885348;29;20470;-81
2020/12/27 01:57:39;;;;;;;1.90;1.80;;;4.60;99.90;;;;;;4849505;29;20555;-81
2020/12/27 02:00:05;;;;;;;2.00;1.90;;;4.60;99.90;;;;;;4808133;29;20441;-81
2020/12/27 02:02:31;;;;;;;1.77;1.67;;;4.60;99.90;;;;;;4785603;29;20431;-81
2020/12/27 02:04:56;;;;;;;2.67;1.97;;;4.60;99.90;;;;;;4817862;29;20806;-81
2020/12/27 02:07:28;;;;;;;2.10;1.90;;;4.50;99.90;;;;;;4787551;29;20726;-81
2020/12/27 02:09:56;;;;;;;1.37;1.27;;;4.50;99.90;;;;;;4805824;29;20224;-81
2020/12/27 02:12:25;;;;;;;2.00;1.53;;;4.50;99.90;;;;;;4808358;29;20469;-81
2020/12/27 02:14:53;;;;;;;1.20;1.13;;;4.50;99.90;;;;;;4823811;29;20437;-81
2020/12/27 02:17:19;;;;;;;1.90;1.67;;;4.40;99.90;;;;;;4811676;29;20434;-81
2020/12/27 02:19:45;;;;;;;2.10;1.90;;;4.40;99.90;;;;;;4849885;29;20588;-81
2020/12/27 02:22:12;;;;;;;1.37;1.27;;;4.40;99.90;;;;;;4832786;29;20620;-81
2020/12/27 02:24:39;;;;;;;2.20;1.90;;;4.40;99.90;;;;;;4826158;29;21198;-80
2020/12/27 02:27:06;;;;;;;1.63;1.53;;;4.40;99.90;;;;;;4870966;29;20420;-81
2020/12/27 02:29:37;;;;;;;1.43;1.33;;;4.40;99.90;;;;;;4889877;28;20932;-81
2020/12/27 02:32:04;;;;;;;1.30;1.30;;;4.40;99.90;;;;;;4919960;28;20423;-81
2020/12/27 02:34:30;;;;;;;2.13;2.00;;;4.40;99.90;;;;;;4969283;28;20406;-81
2020/12/27 02:36:57;;;;;;;2.70;1.80;;;4.40;99.90;;;;;;5020371;28;20573;-81
2020/12/27 02:39:23;;;;;;;1.63;1.53;;;4.40;99.90;;;;;;5029805;28;20422;-80
2020/12/27 02:41:52;;;;;;;0.97;0.97;;;4.40;99.90;;;;;;5050734;28;20419;-81
2020/12/27 02:44:18;;;;;;;2.23;2.00;;;4.50;99.90;;;;;;5033496;28;20482;-81
2020/12/27 02:46:44;;;;;;;1.60;1.50;;;4.50;99.90;;;;;;5049261;28;20424;-81
2020/12/27 02:49:10;;;;;;;1.40;1.27;;;4.50;99.90;;;;;;5045288;28;20435;-81
2020/12/27 02:51:35;;;;;;;2.50;1.70;;;4.50;99.90;;;;;;5034356;28;20256;-81
2020/12/27 02:54:01;;;;;;;1.70;1.60;;;4.60;99.90;;;;;;5027119;28;21303;-81
2020/12/27 02:56:28;;;;;;;1.50;1.40;;;4.60;99.90;;;;;;5048307;28;20307;-81
2020/12/27 02:58:57;;;;;;;2.67;1.43;;;4.60;99.90;;;;;;5045422;28;20211;-81
2020/12/27 03:01:22;;;;;;;1.23;1.13;;;4.60;99.90;;;;;;5048220;28;20384;-81
2020/12/27 03:03:48;;;;;;;2.60;1.63;;;4.70;99.90;;;;;;5049232;28;20457;-81
2020/12/27 03:06:13;;;;;;;1.63;1.53;;;4.60;99.90;;;;;;5044234;28;20601;-81
2020/12/27 03:08:41;;;;;;;1.37;1.00;;;4.60;99.90;;;;;;5046260;28;20607;-80
2020/12/27 03:11:07;;;;;;;2.07;1.70;;;4.70;99.90;;;;;;5049881;28;20275;-80
2020/12/27 03:13:33;;;;;;;2.93;1.70;;;4.70;99.90;;;;;;5038995;28;20939;-81
2020/12/27 03:16:04;;;;;;;1.60;1.40;;;4.60;99.90;;;;;;5058337;28;20423;-80
2020/12/27 03:18:30;;;;;;;1.30;1.20;;;4.70;99.90;;;;;;5032792;28;20441;-80
2020/12/27 03:20:57;;;;;;;1.17;1.13;;;4.80;99.90;;;;;;5044508;28;20383;-80
2020/12/27 03:23:23;;;;;;;1.30;1.20;;;4.80;99.90;;;;;;5050111;28;20426;-81
2020/12/27 03:25:49;;;;;;;1.80;1.50;;;4.60;99.90;;;;;;5047086;28;20391;-81
2020/12/27 03:28:15;;;;;;;0.97;0.97;;;4.60;99.90;;;;;;5047658;28;20507;-81
2020/12/27 03:30:42;;;;;;;1.80;1.40;;;4.70;99.90;;;;;;5035626;28;20496;-81
2020/12/27 03:33:35;;;;;;;2.20;1.10;;;4.70;99.90;;;;;;5030070;28;20427;-81
2020/12/27 03:36:26;;;;;;;1.17;1.10;;;4.80;99.90;;;;;;5027397;28;20562;-81
2020/12/27 03:38:52;;;;;;;1.33;1.20;;;4.80;99.90;;;;;;4954454;28;20923;-81
2020/12/27 03:41:19;;;;;;;1.23;1.20;;;4.80;99.90;;;;;;4969171;28;20428;-81
2020/12/27 03:43:45;;;;;;;2.20;1.10;;;4.70;99.90;;;;;;4923394;28;20588;-81
2020/12/27 03:46:12;;;;;;;1.13;1.00;;;4.80;99.90;;;;;;4942658;28;20394;-81
2020/12/27 03:48:38;;;;;;;1.27;1.17;;;4.70;99.90;;;;;;4973237;28;20384;-81
2020/12/27 03:51:04;;;;;;;1.23;1.07;;;4.80;99.90;;;;;;4942779;28;20408;-80
2020/12/27 03:53:30;;;;;;;1.03;1.03;;;4.70;99.90;;;;;;4948195;28;20251;-81
2020/12/27 03:56:24;;;;;;;0.90;0.90;;;4.80;99.90;;;;;;4954811;28;20522;-81
2020/12/27 03:58:51;;;;;;;0.90;0.90;;;4.80;99.90;;;;;;4929165;28;20731;-81
2020/12/27 04:01:17;;;;;;;2.10;1.07;;;4.70;99.90;;;;;;4879971;28;20470;-81
2020/12/27 04:04:12;;;;;;;2.50;1.07;;;4.80;99.90;;;;;;4913983;29;20429;-81
2020/12/27 04:06:38;;;;;;;1.40;1.30;;;4.80;99.90;;;;;;4918549;28;20498;-81
2020/12/27 04:09:30;;;;;;;3.80;1.60;;;4.70;99.90;;;;;;4918724;28;20476;-81
2020/12/27 04:11:56;;;;;;;1.57;1.47;;;4.80;99.90;;;;;;4819524;29;20515;-81
2020/12/27 04:14:22;;;;;;;2.90;1.17;;;4.80;99.90;;;;;;4812144;29;20429;-81
2020/12/27 04:17:14;;;;;;;1.03;1.03;;;4.80;99.90;;;;;;4840644;29;20228;-81
2020/12/27 04:19:39;;;;;;;1.60;1.50;;;4.80;99.90;;;;;;4838187;29;20229;-81
2020/12/27 04:22:05;;;;;;;2.90;1.40;;;4.80;99.90;;;;;;4837132;29;20933;-81
2020/12/27 04:24:30;;;;;;;1.47;1.37;;;4.80;99.90;;;;;;4857612;29;20228;-81
2020/12/27 04:27:22;;;;;;;1.00;0.90;;;4.80;99.90;;;;;;4854326;29;20273;-81
2020/12/27 04:29:48;;;;;;;1.10;1.00;;;4.90;99.90;;;;;;4806357;29;20254;-81
2020/12/27 04:32:43;;;;;;;1.30;1.20;;;4.90;99.90;;;;;;4822795;29;20502;-81
2020/12/27 04:35:35;;;;;;;1.00;0.90;;;4.90;99.90;;;;;;4784261;29;20878;-81
2020/12/27 04:38:02;;;;;;;1.33;1.10;;;4.90;99.90;;;;;;4714456;30;20672;-81
2020/12/27 04:40:28;;;;;;;0.80;0.80;;;4.90;99.90;;;;;;4733718;30;20396;-80
2020/12/27 04:42:54;;;;;;;1.57;0.90;;;4.90;99.90;;;;;;4730079;30;20480;-81
2020/12/27 04:45:22;;;;;;;1.40;0.90;;;4.90;99.90;;;;;;4754771;29;20251;-81
2020/12/27 04:47:52;;;;;;;1.20;1.10;;;4.90;99.90;;;;;;4751919;29;20446;-81
2020/12/27 04:50:18;;;;;;;2.63;1.50;;;4.90;99.90;;;;;;4799379;29;20398;-81
2020/12/27 04:52:45;;;;;;;0.90;0.90;;;4.90;99.90;;;;;;4817420;29;20429;-80
2020/12/27 04:55:40;;;;;;;1.00;1.00;;;4.90;99.90;;;;;;4803385;29;20419;-82
2020/12/27 04:58:14;;;;;;;3.03;1.27;;;4.80;99.90;;;;;;4801034;29;20778;-81
2020/12/27 05:00:40;;;;;;;0.80;0.80;;;4.90;99.90;;;;;;4819976;29;20437;-81
2020/12/27 05:03:07;;;;;;;0.80;0.80;;;4.80;99.90;;;;;;4801035;29;20515;-81
2020/12/27 05:05:33;;;;;;;0.70;0.70;;;4.80;99.90;;;;;;4815886;29;20432;-81
2020/12/27 05:07:58;;;;;;;1.63;1.00;;;4.90;99.90;;;;;;4801630;29;20968;-81
2020/12/27 05:10:24;;;;;;;1.10;0.90;;;4.90;99.90;;;;;;4822948;29;20213;-81
2020/12/27 05:12:52;;;;;;;0.90;0.90;;;4.90;99.90;;;;;;4881718;29;22442;-81
2020/12/27 05:15:22;;;;;;;0.97;0.97;;;4.90;99.90;;;;;;4945145;28;20754;-81
2020/12/27 05:17:50;;;;;;;1.13;1.03;;;4.90;99.90;;;;;;4952723;28;20456;-81
2020/12/27 05:20:18;;;;;;;2.90;1.10;;;4.90;99.90;;;;;;4920305;28;20431;-81
2020/12/27 05:22:46;;;;;;;1.20;1.00;;;4.90;99.90;;;;;;4968735;28;20606;-81
2020/12/27 05:25:40;;;;;;;0.60;0.60;;;4.90;99.90;;;;;;4954330;28;20810;-81
2020/12/27 05:28:10;;;;;;;0.93;0.93;;;4.90;99.90;;;;;;4845618;29;20522;-81
2020/12/27 05:31:09;;;;;;;0.83;0.83;;;4.80;99.90;;;;;;4877782;29;20526;-80
2020/12/27 05:34:05;;;;;;;1.53;1.07;;;5.00;99.90;;;;;;4862528;29;20896;-81
2020/12/27 05:36:32;;;;;;;1.03;1.03;;;4.90;99.90;;;;;;4897394;29;20393;-81
2020/12/27 05:38:59;;;;;;;7.40;1.03;;;4.90;99.90;;;;;;4902285;29;20939;-82
2020/12/27 05:41:26;;;;;;;1.50;0.83;;;5.00;99.90;;;;;;4850083;29;20454;-80
2020/12/27 05:44:03;;;;;;;0.80;0.80;;;5.00;99.90;;;;;;4885366;29;20422;-81
2020/12/27 05:46:31;;;;;;;0.70;0.70;;;5.00;99.90;;;;;;4877242;29;20424;-82
2020/12/27 05:48:58;;;;;;;0.80;0.80;;;5.00;99.90;;;;;;4898101;29;20471;-81
2020/12/27 05:51:26;;;;;;;1.40;1.30;;;4.90;99.90;;;;;;4896000;29;20422;-81
2020/12/27 05:53:53;;;;;;;0.77;0.77;;;5.00;99.90;;;;;;4902420;29;20613;-81
2020/12/27 05:56:21;;;;;;;0.90;0.80;;;4.90;99.90;;;;;;4860344;29;20457;-81
2020/12/27 05:58:48;;;;;;;2.20;0.77;;;5.00;99.90;;;;;;4879425;29;20483;-81
2020/12/27 06:01:22;;;;;;;0.90;0.90;;;5.00;99.90;;;;;;4892697;29;20444;-81
2020/12/27 06:03:58;;;;;;;0.80;0.80;;;5.00;99.90;;;;;;4877937;29;20484;-81
2020/12/27 06:06:42;;;;;;;1.40;0.73;;;5.00;99.90;;;;;;4914212;29;20432;-81
2020/12/27 06:09:09;;;;;;;0.70;0.70;;;5.00;99.90;;;;;;4903577;29;20392;-81
2020/12/27 06:11:45;;;;;;;0.70;0.60;;;5.00;99.90;;;;;;4972063;28;20918;-81
2020/12/27 06:14:15;;;;;;;0.80;0.80;;;5.00;99.90;;;;;;5047341;28;20411;-81
2020/12/27 06:16:50;;;;;;;1.10;1.10;;;5.10;99.90;;;;;;5068932;28;20418;-81
2020/12/27 06:19:36;;;;;;;0.80;0.80;;;5.00;99.90;;;;;;5056491;28;20433;-81
2020/12/27 06:22:05;;;;;;;0.60;0.60;;;5.00;99.90;;;;;;5050263;28;20412;-81
2020/12/27 06:24:31;;;;;;;1.43;1.00;;;5.10;99.90;;;;;;5066623;28;20390;-81
2020/12/27 06:27:01;;;;;;;0.70;0.70;;;5.10;99.90;;;;;;5031103;28;20462;-81
2020/12/27 06:29:50;;;;;;;0.70;0.70;;;5.10;99.90;;;;;;5066482;28;20424;-81
2020/12/27 06:32:22;;;;;;;0.60;0.60;;;5.10;99.90;;;;;;5067095;28;20443;-81
2020/12/27 06:34:48;;;;;;;0.70;0.70;;;5.20;99.90;;;;;;5035365;28;20399;-81
2020/12/27 06:37:40;;;;;;;0.97;0.97;;;5.10;99.90;;;;;;5047806;28;20409;-81
2020/12/27 06:40:08;;;;;;;1.33;0.70;;;5.10;99.90;;;;;;4997518;28;20697;-81
2020/12/27 06:42:34;;;;;;;0.83;0.83;;;5.20;99.90;;;;;;4994722;28;21346;-80
2020/12/27 06:44:59;;;;;;;0.70;0.70;;;5.10;99.90;;;;;;4995070;28;20436;-80
2020/12/27 06:47:48;;;;;;;0.80;0.80;;;5.10;99.90;;;;;;4944841;28;20253;-81
2020/12/27 06:50:18;;;;;;;0.60;0.60;;;5.10;99.90;;;;;;4994532;28;20207;-82
2020/12/27 06:52:44;;;;;;;0.60;0.60;;;5.10;99.90;;;;;;4973368;28;20412;-83
2020/12/27 06:55:33;;;;;;;0.77;0.77;;;5.20;99.90;;;;;;4994394;28;20748;-81
2020/12/27 06:58:24;;;;;;;1.33;0.83;;;5.30;99.90;;;;;;4988172;28;20445;-82
2020/12/27 07:01:22;;;;;;;0.93;0.77;;;5.20;99.90;;;;;;4995082;28;20991;-82
2020/12/27 07:04:15;;;;;;;0.70;0.70;;;5.30;99.90;;;;;;4975356;28;20443;-82
2020/12/27 07:07:10;;;;;;;0.70;0.70;;;5.20;99.90;;;;;;4999446;28;20442;-82
2020/12/27 07:09:41;;;;;;;0.70;0.70;;;5.30;99.90;;;;;;4958433;28;20914;-82
2020/12/27 07:12:09;;;;;;;0.57;0.57;;;5.30;99.90;;;;;;4959752;28;20964;-82
2020/12/27 07:14:42;;;;;;;0.60;0.60;;;5.30;99.90;;;;;;4957906;28;20490;-82
2020/12/27 07:17:09;;;;;;;1.20;0.90;;;5.30;99.90;;;;;;4944044;28;20439;-82
2020/12/27 07:19:36;;;;;;;0.60;0.60;;;5.30;99.90;;;;;;4934526;28;21171;-82
2020/12/27 07:22:06;;;;;;;3.03;0.97;;;5.30;99.90;;;;;;4937190;28;20405;-82
2020/12/27 07:24:37;;;;;;;1.57;0.70;;;5.30;99.90;;;;;;4962868;28;20534;-84
2020/12/27 07:27:07;;;;;;;0.87;0.70;;;5.30;99.90;;;;;;4938612;28;20443;-82
2020/12/27 07:29:35;;;;;;;0.70;0.70;;;5.50;99.90;;;;;;4930003;28;20433;-82
2020/12/27 07:32:01;;;;;;;0.70;0.60;;;5.50;99.90;;;;;;4896446;28;20420;-82
2020/12/27 07:34:30;;;;;;;1.83;0.80;;;5.40;99.90;;;;;;4922793;28;20401;-82
2020/12/27 07:37:03;;;;;;;0.70;0.70;;;5.40;99.90;;;;;;4950360;28;20459;-82
2020/12/27 07:39:56;;;;;;;0.60;0.60;;;5.30;99.90;;;;;;4936003;28;20423;-82
2020/12/27 07:42:34;;;;;;;0.83;0.83;;;5.30;99.90;;;;;;4923201;28;20490;-82
2020/12/27 07:45:04;;;;;;;0.50;0.50;;;5.20;99.90;;;;;;4979563;28;20388;-81
2020/12/27 07:47:35;;;;;;;0.53;0.53;;;5.20;99.90;;;;;;5049328;28;20977;-82
2020/12/27 07:50:15;;;;;;;0.80;0.77;;;5.20;99.90;;;;;;5039298;28;20388;-82
2020/12/27 07:52:56;;;;;;;0.80;0.73;;;5.20;99.90;;;;;;5045963;28;20509;-82
2020/12/27 07:55:26;;;;;;;1.20;1.20;;;5.10;99.90;;;;;;5030492;28;20394;-82
2020/12/27 07:57:54;;;;;;;0.60;0.60;;;5.00;99.90;;;;;;5059220;28;20396;-82
2020/12/27 08:00:28;;;;;;;0.83;0.83;;;5.00;99.90;;;;;;5048468;28;20431;-81
2020/12/27 08:02:54;;;;;;;0.83;0.83;;;5.10;99.90;;;;;;5036733;28;20432;-82
2020/12/27 08:05:20;;;;;;;0.70;0.70;;;5.10;99.90;;;;;;5034984;28;20786;-82
2020/12/27 08:07:47;;;;;;;1.20;1.10;;;5.10;99.90;;;;;;5041931;28;20805;-82
2020/12/27 08:10:24;;;;;;;0.50;0.50;;;5.20;99.90;;;;;;5043888;28;20912;-82
2020/12/27 08:12:58;;;;;;;0.53;0.53;;;5.20;99.90;;;;;;5036697;28;20455;-82
2020/12/27 08:15:26;;;;;;;0.63;0.63;;;5.30;99.90;;;;;;5045292;28;20433;-82
2020/12/27 08:17:59;;;;;;;0.60;0.60;;;5.30;99.90;;;;;;5037436;28;21083;-82
2020/12/27 08:20:27;;;;;;;0.60;0.60;;;5.40;99.90;;;;;;5041981;28;20593;-82
2020/12/27 08:23:03;;;;;;;0.70;0.70;;;5.40;99.90;;;;;;5033135;28;20501;-81
2020/12/27 08:25:30;;;;;;;1.07;0.97;;;5.40;99.90;;;;;;5062128;28;20935;-83
2020/12/27 08:27:59;;;;;;;0.80;0.80;;;5.40;99.90;;;;;;5052103;28;20463;-84
2020/12/27 08:30:26;;;;;;;0.90;0.67;;;5.50;99.90;;;;;;5026714;28;20574;-82
2020/12/27 08:33:17;;;;;;;2.10;2.00;;;5.50;99.90;;;;;;5035927;28;21183;-83
2020/12/27 08:35:48;;;;;;;0.77;0.77;;;5.40;99.90;;;;;;5049178;28;21246;-82
2020/12/27 08:38:39;;;;;;;0.80;0.80;;;5.50;99.90;;;;;;5048891;28;21542;-82
2020/12/27 08:41:23;;;;;;;0.63;0.60;;;5.50;99.90;;;;;;5052167;28;20585;-83
2020/12/27 08:44:02;;;;;;;0.60;0.60;;;5.50;99.90;;;;;;5066748;28;20793;-83
2020/12/27 08:46:34;;;;;;;0.70;0.70;;;5.50;99.90;;;;;;5058390;28;20423;-82
2020/12/27 08:49:31;;;;;;;0.80;0.80;;;5.50;99.90;;;;;;5032971;28;20895;-82
2020/12/27 08:52:19;;;;;;;1.00;0.90;;;5.60;99.90;;;;;;5043109;28;20393;-85
2020/12/27 08:54:56;;;;;;;0.70;0.70;;;5.50;99.90;;;;;;5047128;28;20420;-82
2020/12/27 08:57:23;;;;;;;0.73;0.73;;;5.60;99.90;;;;;;5047822;28;20880;-84
2020/12/27 09:00:04;;;;;;;0.80;0.80;;;5.60;99.90;;;;;;5032868;28;21001;-83
2020/12/27 09:02:29;;;;;;;0.70;0.70;;;5.60;99.90;;;;;;5032227;28;20429;-83
2020/12/27 09:05:13;;;;;;;0.80;0.80;;;5.60;99.90;;;;;;5045048;28;20416;-82
2020/12/27 09:07:44;;;;;;;0.77;0.77;;;5.50;99.90;;;;;;5033987;28;20303;-83
2020/12/27 09:10:12;;;;;;;0.80;0.80;;;5.40;99.90;;;;;;5065164;28;20403;-83
2020/12/27 09:12:39;;;;;;;0.83;0.83;;;5.40;99.90;;;;;;5051929;28;20450;-84
2020/12/27 09:15:28;;;;;;;0.80;0.80;;;5.50;99.90;;;;;;5050399;28;20422;-83
2020/12/27 09:18:05;;;;;;;0.60;0.60;;;5.60;99.90;;;;;;5052181;28;20418;-83
2020/12/27 09:20:32;;;;;;;0.87;0.80;;;5.70;99.90;;;;;;5043423;28;20420;-82
2020/12/27 09:22:59;;;;;;;0.90;0.80;;;5.70;99.90;;;;;;5036107;28;20395;-83
2020/12/27 09:25:26;;;;;;;1.53;0.87;;;5.80;99.90;;;;;;5031010;28;20461;-83
2020/12/27 09:27:53;;;;;;;0.70;0.70;;;5.80;99.90;;;;;;5049781;28;21176;-83
2020/12/27 09:30:26;;;;;;;0.70;0.70;;;5.80;99.90;;;;;;5051176;28;20473;-82
2020/12/27 09:33:00;;;;;;;0.50;0.50;;;5.80;99.90;;;;;;5019533;28;20413;-85
2020/12/27 09:35:26;;;;;;;1.13;1.07;;;5.80;99.90;;;;;;5052155;28;20380;-83
2020/12/27 09:37:52;;;;;;;0.70;0.70;;;5.80;99.90;;;;;;5049876;28;20535;-83
2020/12/27 09:40:18;;;;;;;0.83;0.83;;;5.70;99.90;;;;;;5029796;28;20553;-82
2020/12/27 09:42:45;;;;;;;0.93;0.93;;;5.60;99.90;;;;;;5032910;28;20210;-81
2020/12/27 09:45:23;;;;;;;0.60;0.60;;;5.50;99.90;;;;;;5050725;28;20428;-83
2020/12/27 09:48:03;;;;;;;1.53;0.70;;;5.30;99.90;;;;;;5045334;28;20401;-82
2020/12/27 09:50:34;;;;;;;0.93;0.90;;;5.20;99.90;;;;;;5032818;28;20917;-83
2020/12/27 09:53:01;;;;;;;0.87;0.87;;;5.20;99.90;;;;;;5074029;28;20420;-83
2020/12/27 09:55:28;;;;;;;0.70;0.70;;;5.20;99.90;;;;;;5032056;28;20975;-83
2020/12/27 09:57:54;;;;;;;1.00;0.90;;;5.10;99.90;;;;;;5049860;28;20415;-83
2020/12/27 10:00:21;;;;;;;1.00;1.00;;;5.10;99.90;;;;;;5053158;28;20424;-84
2020/12/27 10:02:47;;;;;;;1.77;1.00;;;5.00;99.90;;;;;;5038195;28;20236;-83
2020/12/27 10:05:13;;;;;;;0.63;0.63;;;5.00;99.90;;;;;;5038573;28;20924;-83
2020/12/27 10:07:42;;;;;;;1.10;1.00;;;5.00;99.90;;;;;;5052673;28;20409;-83
2020/12/27 10:10:10;;;;;;;0.90;0.83;;;5.00;99.90;;;;;;5037667;28;20217;-84
2020/12/27 10:12:59;;;;;;;0.80;0.80;;;5.10;99.90;;;;;;5052848;28;21246;-85
2020/12/27 10:15:27;;;;;;;0.80;0.80;;;5.10;99.90;;;;;;4994111;28;20408;-85
2020/12/27 10:17:53;;;;;;;0.87;0.87;;;5.10;99.90;;;;;;4970351;28;20398;-85
2020/12/27 10:20:19;;;;;;;0.70;0.70;;;5.10;99.90;;;;;;4992699;28;20390;-85
2020/12/27 10:22:47;;;;;;;0.87;0.87;;;5.20;99.90;;;;;;4934287;28;20443;-83
2020/12/27 10:25:13;;;;;;;1.03;0.80;;;5.30;99.90;;;;;;4949822;28;20200;-85
2020/12/27 10:27:42;;;;;;;0.80;0.80;;;5.20;99.90;;;;;;4948724;28;20431;-84
2020/12/27 10:30:08;;;;;;;0.90;0.90;;;5.20;99.90;;;;;;4964007;28;20418;-85
2020/12/27 10:33:02;;;;;;;1.00;1.00;;;5.10;99.90;;;;;;4956666;28;20428;-85
2020/12/27 10:35:28;;;;;;;1.17;1.07;;;5.10;99.90;;;;;;4907023;29;20210;-83
2020/12/27 10:37:53;;;;;;;0.83;0.83;;;5.20;99.90;;;;;;4904919;29;20410;-83
2020/12/27 10:40:19;;;;;;;0.90;0.90;;;5.20;99.90;;;;;;4889853;29;20413;-84
2020/12/27 10:43:13;;;;;;;1.10;1.10;;;5.40;99.90;;;;;;4900666;29;20313;-84
2020/12/27 10:46:04;;;;;;;0.70;0.70;;;5.30;99.90;;;;;;4898250;29;20227;-84
2020/12/27 10:48:35;;;;;;;0.83;0.70;;;5.20;99.90;;;;;;4901797;29;20491;-84
2020/12/27 10:51:02;;;;;;;0.83;0.83;;;5.20;99.90;;;;;;4886878;29;20941;-85
2020/12/27 10:53:28;;;;;;;1.17;1.07;;;5.20;99.90;;;;;;4959543;28;20406;-84
2020/12/27 10:55:55;;;;;;;0.90;0.90;;;5.20;99.90;;;;;;4927564;28;20395;-84
2020/12/27 10:58:46;;;;;;;1.60;1.50;;;5.10;99.90;;;;;;4928927;28;20928;-84
2020/12/27 11:01:46;;;;;;;3.57;2.10;;;5.10;99.90;;;;;;4961525;28;20388;-84
2020/12/27 11:04:41;;;;;;;1.20;1.17;;;5.20;99.90;;;;;;4861587;29;20400;-84
2020/12/27 11:07:07;;;;;;;1.50;1.40;;;5.20;99.90;;;;;;4832319;29;20521;-82
2020/12/27 11:09:59;;;;;;;1.40;1.30;;;5.20;99.90;;;;;;4848508;29;20389;-82
2020/12/27 11:12:25;;;;;;;1.00;1.00;;;5.20;99.90;;;;;;4833388;29;20440;-83
2020/12/27 11:14:52;;;;;;;2.37;2.17;;;5.10;99.90;;;;;;4846565;29;20478;-84
2020/12/27 11:17:20;;;;;;;2.00;1.23;;;5.10;99.90;;;;;;4846689;29;21387;-83
2020/12/27 11:19:45;;;;;;;2.50;2.00;;;5.10;99.90;;;;;;4838865;29;20426;-84
2020/12/27 11:22:11;;;;;;;1.10;1.10;;;5.20;99.90;;;;;;4830698;29;20416;-83
2020/12/27 11:24:37;;;;;;;1.47;1.23;;;5.20;99.90;;;;;;4824410;29;20230;-84
2020/12/27 11:27:03;;;;;;;1.00;1.00;;;5.40;99.90;;;;;;4809671;29;20230;-84
2020/12/27 11:29:30;;;;;;;1.40;1.30;;;5.50;99.90;;;;;;4814003;29;20229;-84
2020/12/27 11:31:58;;;;;;;1.00;1.00;;;5.60;99.90;;;;;;4801571;29;20480;-84
2020/12/27 11:34:27;;;;;;;1.30;1.20;;;5.70;99.90;;;;;;4810988;29;20536;-84
2020/12/27 11:36:55;;;;;;;0.80;0.80;;;5.70;99.90;;;;;;4816107;29;20430;-86
2020/12/27 11:39:20;;;;;;;1.10;1.00;;;5.90;99.90;;;;;;4856598;29;20531;-84
2020/12/27 11:41:49;;;;;;;1.30;1.20;;;5.90;99.90;;;;;;4916732;28;20469;-86
2020/12/27 11:44:15;;;;;;;1.67;1.10;;;5.90;99.90;;;;;;4971100;28;20731;-85
2020/12/27 11:46:42;;;;;;;0.90;0.90;;;5.90;99.90;;;;;;4967578;28;20525;-84
2020/12/27 11:49:09;;;;;;;1.30;1.20;;;5.90;99.90;;;;;;4983933;28;20230;-79
2020/12/27 11:51:36;;;;;;;2.40;1.37;;;6.00;99.90;;;;;;5034072;28;20448;-80
2020/12/27 11:54:04;;;;;;;0.90;0.90;;;6.00;99.90;;;;;;5010705;28;20421;-78
2020/12/27 11:56:30;;;;;;;0.80;0.80;;;6.00;99.90;;;;;;5015480;28;20492;-80
2020/12/27 11:59:22;;;;;;;0.80;0.60;;;5.90;99.90;;;;;;5033755;28;20983;-81
2020/12/27 12:01:49;;;;;;;0.70;0.70;;;5.90;99.90;;;;;;5049088;28;20820;-80
2020/12/27 12:04:17;;;;;;;5.07;3.13;;;5.90;99.90;;;;;;5016652;28;20604;-79
2020/12/27 12:06:43;;;;;;;3.60;1.13;;;5.80;99.90;;;;;;5026933;28;20872;-81
2020/12/27 12:09:12;;;;;;;0.70;0.70;;;5.80;99.90;;;;;;5001523;28;20388;-81
2020/12/27 12:11:40;;;;;;;0.70;0.70;;;5.70;99.90;;;;;;4999235;28;20391;-80
2020/12/27 12:14:06;;;;;;;0.90;0.90;;;5.50;99.90;;;;;;5026138;28;20397;-80
2020/12/27 12:16:58;;;;;;;0.90;0.90;;;5.50;99.90;;;;;;5010245;28;20412;-79
2020/12/27 12:19:24;;;;;;;0.97;0.90;;;5.40;99.90;;;;;;4957293;28;20406;-79
2020/12/27 12:21:52;;;;;;;0.90;0.90;;;5.30;99.90;;;;;;4926897;28;20411;-79
2020/12/27 12:24:22;;;;;;;1.10;1.00;;;5.30;99.90;;;;;;4949567;28;20656;-79
2020/12/27 12:26:50;;;;;;;2.30;1.00;;;5.30;99.90;;;;;;4943218;28;20742;-79
2020/12/27 12:29:17;;;;;;;0.90;0.90;;;5.30;99.90;;;;;;4958511;28;20418;-80
2020/12/27 12:31:43;;;;;;;1.10;0.80;;;5.20;99.90;;;;;;4952779;28;20423;-80
2020/12/27 12:34:09;;;;;;;0.73;0.70;;;5.20;99.90;;;;;;4951535;28;20758;-80
2020/12/27 12:36:35;;;;;;;0.77;0.77;;;5.20;99.90;;;;;;4976067;28;20231;-81
2020/12/27 12:39:03;;;;;;;1.27;0.67;;;5.20;99.90;;;;;;4970900;28;20510;-80
2020/12/27 12:41:56;;;;;;;1.00;0.70;;;5.20;99.90;;;;;;4955317;28;20396;-80
2020/12/27 12:44:22;;;;;;;0.60;0.60;;;5.20;99.90;;;;;;4938335;28;20425;-79
2020/12/27 12:46:50;;;;;;;0.70;0.70;;;5.10;99.90;;;;;;4906568;28;20413;-79
2020/12/27 12:49:42;;;;;;;1.40;1.07;;;5.10;99.90;;;;;;4923283;28;20225;-80
2020/12/27 12:52:08;;;;;;;2.00;1.47;;;5.10;99.90;;;;;;4866714;29;20415;-79
2020/12/27 12:54:34;;;;;;;2.20;2.00;;;5.00;99.90;;;;;;4840924;29;20523;-81
2020/12/27 12:57:27;;;;;;;0.97;0.97;;;5.00;99.90;;;;;;4884159;29;20223;-80
2020/12/27 12:59:54;;;;;;;0.90;0.90;;;5.00;99.90;;;;;;4912503;29;20932;-80
2020/12/27 13:02:20;;;;;;;1.43;1.10;;;5.00;99.90;;;;;;4919306;29;20971;-80
2020/12/27 13:04:48;;;;;;;1.43;1.33;;;5.00;99.90;;;;;;4895373;29;20498;-81
2020/12/27 13:07:17;;;;;;;0.70;0.70;;;5.00;99.90;;;;;;4913024;29;20424;-82
2020/12/27 13:09:44;;;;;;;1.90;1.10;;;4.90;99.90;;;;;;4899903;29;20470;-81
2020/12/27 13:12:10;;;;;;;0.97;0.93;;;4.90;99.90;;;;;;4901839;29;20398;-81
2020/12/27 13:14:35;;;;;;;1.27;0.63;;;4.90;99.90;;;;;;4866363;29;20432;-81
2020/12/27 13:17:01;;;;;;;1.03;0.90;;;4.90;99.90;;;;;;4886984;29;20764;-82
2020/12/27 13:19:28;;;;;;;0.97;0.90;;;4.80;99.90;;;;;;4889986;29;20245;-81
2020/12/27 13:21:55;;;;;;;0.90;0.90;;;4.80;99.90;;;;;;4928740;28;20566;-82
2020/12/27 13:24:21;;;;;;;0.97;0.87;;;4.80;99.90;;;;;;4919278;29;20411;-83